CheckWX is a tool to help pilots better visualize weather data.  It is not intended as a substitute for an official pre-flight weather briefing.

06:34:27 UTC

KEEN METAR
Dillant-Hopkins Airport
Keene, New Hampshire, USA
Current

15 mins ago

KEEN 230619Z AUTO 01005KT 10SM -RA BKN022 BKN033 OVC045 12/12 A2996 RMK AO2 RAB0558 PNO $
Observed
Apr-23 @ 06:19 UTC
Wind
  • 010° at 5 KTS
Visibility
10 SM
Flight Rules
MVFR
Conditions
Light Rain
Cloud Levels
  • Broken at 2,200' AGL
  • Broken at 3,300' AGL
  • Overcast at 4,500' AGL
Temperature
12°C / 54°F
Dewpoint
12°C / 54°F
Humidity
100%
Altimeter
29.96" Hg
Pressure
1014.52 hPa
Previous

38 mins ago

KEEN 230556Z AUTO 01007KT 10SM FEW022 SCT033 OVC055 13/12 A2996 RMK AO2 RAE56 SLP164 6//// T01280117 10144 20122 58015 PNO $
Observed
Apr-23 @ 05:56 UTC
Wind
  • 010° at 7 KTS
Visibility
10 SM
Flight Rules
VFR
Cloud Levels
  • Few at 2,200' AGL
  • Scattered at 3,300' AGL
  • Overcast at 5,500' AGL
Temperature
13°C / 55°F
Dewpoint
12°C / 54°F
Humidity
94%
Altimeter
29.96" Hg
Pressure
1014.52 hPa
Previous

2 hours ago

KEEN 230456Z AUTO 35005KT 10SM -RA BKN045 OVC055 13/12 A2998 RMK AO2 SLP169 T01280117 402170083 PNO $
Observed
Apr-23 @ 04:56 UTC
Wind
  • 350° at 5 KTS
Visibility
10 SM
Flight Rules
VFR
Conditions
Light Rain
Cloud Levels
  • Broken at 4,500' AGL
  • Overcast at 5,500' AGL
Temperature
13°C / 55°F
Dewpoint
12°C / 54°F
Humidity
94%
Altimeter
29.98" Hg
Pressure
1015.22 hPa